createdAt,value
2023-03-06T03:00:24.584Z,73.33
2023-03-06T07:01:24.112Z,58.64
2023-03-06T07:01:55.991Z,58.53
2023-03-06T07:03:00.240Z,59.88
2023-03-06T07:03:32.133Z,60.63
2023-03-06T07:04:04.123Z,59.83
2023-03-06T07:04:36.005Z,59.98
2023-03-06T07:05:08.349Z,59.69
2023-03-06T07:05:40.261Z,59.93
2023-03-06T07:06:12.072Z,60.14
2023-03-06T07:06:43.945Z,59.95
2023-03-06T07:07:15.768Z,60.18
2023-03-06T07:07:47.646Z,60.38
2023-03-06T07:08:19.541Z,61.35
2023-03-06T07:08:52.011Z,60.91
2023-03-06T07:09:24.239Z,61.73
2023-03-06T07:09:56.297Z,61.08
2023-03-06T07:10:28.212Z,61.07
2023-03-06T07:11:06.575Z,60.72
2023-03-06T07:11:39.953Z,61.19
2023-03-06T07:12:11.870Z,60.97
2023-03-06T07:12:44.023Z,61.00
2023-03-06T07:13:15.946Z,61.37
2023-03-06T07:13:48.037Z,61.21
2023-03-06T07:14:19.837Z,60.50
2023-03-06T07:14:51.669Z,60.60
2023-03-06T07:15:26.960Z,60.71
2023-03-06T07:15:58.872Z,60.52
2023-03-06T07:16:30.677Z,60.79
2023-03-06T07:17:02.640Z,60.71
2023-03-06T07:17:34.579Z,61.28
2023-03-06T07:18:06.344Z,61.44
2023-03-06T07:18:38.316Z,61.73
2023-03-06T07:19:10.033Z,61.79
2023-03-06T07:19:41.873Z,61.92
2023-03-06T07:20:13.639Z,61.98
2023-03-06T07:20:45.451Z,62.06
2023-03-06T07:21:17.316Z,61.50
2023-03-06T07:21:49.098Z,61.70
2023-03-06T07:22:21.225Z,61.79
2023-03-06T07:22:52.955Z,61.61
2023-03-06T07:23:26.612Z,61.86
2023-03-06T07:23:58.750Z,61.17
2023-03-06T07:24:30.626Z,60.86
2023-03-06T07:25:03.521Z,60.53
2023-03-06T07:25:35.383Z,61.18
2023-03-06T07:26:07.625Z,61.39
2023-03-06T07:26:39.521Z,61.00
2023-03-06T07:27:11.611Z,61.52
2023-03-06T07:27:46.973Z,61.05
2023-03-06T07:28:22.918Z,61.47
2023-03-06T07:28:55.443Z,60.93
2023-03-06T07:29:27.564Z,61.17
2023-03-06T07:30:17.720Z,61.89
2023-03-06T07:30:50.129Z,62.01
2023-03-06T07:31:24.598Z,61.46
2023-03-06T07:31:56.564Z,61.88
2023-03-06T07:32:28.515Z,61.63
2023-03-06T07:33:00.723Z,61.75
2023-03-06T07:33:32.548Z,60.85
2023-03-06T07:34:05.096Z,61.39
2023-03-06T07:34:37.821Z,60.62
2023-03-06T07:35:20.046Z,61.04
2023-03-06T07:35:52.554Z,60.68
2023-03-06T07:36:24.899Z,61.24
2023-03-06T07:36:56.742Z,61.25
2023-03-06T07:37:28.531Z,61.28
2023-03-06T07:38:01.097Z,61.15
2023-03-06T07:38:32.990Z,61.05
2023-03-06T07:39:05.387Z,61.15
2023-03-06T07:39:37.206Z,61.05
2023-03-06T07:40:10.426Z,61.18
2023-03-06T07:40:42.410Z,61.10
2023-03-06T07:41:16.504Z,61.19
2023-03-06T07:41:48.447Z,61.70
2023-03-06T07:42:20.412Z,61.55
2023-03-06T07:43:09.230Z,60.49
2023-03-06T07:43:48.781Z,60.16
2023-03-06T07:44:20.603Z,60.29
2023-03-06T07:44:52.486Z,60.12
2023-03-06T07:45:25.035Z,60.55
2023-03-06T07:45:58.294Z,60.38
2023-03-06T07:46:30.150Z,60.01
2023-03-06T07:47:02.103Z,60.31
2023-03-06T07:47:33.961Z,60.49
2023-03-06T07:48:06.520Z,60.65
2023-03-06T07:48:39.197Z,59.92
2023-03-06T07:49:11.017Z,60.04
2023-03-06T07:49:42.846Z,60.46
2023-03-06T07:50:14.670Z,60.20
2023-03-06T07:50:55.536Z,60.13
2023-03-06T07:51:27.360Z,59.45
2023-03-06T07:52:00.661Z,59.80
2023-03-06T07:52:33.259Z,59.87
2023-03-06T07:53:05.192Z,60.21
2023-03-06T07:53:37.065Z,60.45
2023-03-06T07:54:08.963Z,60.21
2023-03-06T07:54:40.787Z,60.89
2023-03-06T07:55:13.234Z,60.85
2023-03-06T07:55:44.999Z,60.42
2023-03-06T07:56:17.191Z,60.15
2023-03-06T07:56:52.019Z,60.52
2023-03-06T07:57:23.775Z,60.29
2023-03-06T07:57:55.574Z,60.15
2023-03-06T07:58:27.581Z,60.48
2023-03-06T07:58:59.369Z,60.85
2023-03-06T07:59:31.157Z,60.49
2023-03-06T08:00:05.980Z,60.52
2023-03-06T08:00:37.744Z,60.11
2023-03-06T08:01:13.006Z,59.85
2023-03-06T08:01:44.997Z,59.71
2023-03-06T08:02:16.890Z,59.13
2023-03-06T08:02:49.776Z,59.68
2023-03-06T08:03:21.698Z,58.89
2023-03-06T08:03:54.181Z,58.60
2023-03-06T08:04:27.011Z,58.12
2023-03-06T08:05:00.158Z,57.96
2023-03-06T08:05:32.016Z,57.49
2023-03-06T08:06:14.938Z,57.74
2023-03-06T08:06:46.949Z,57.39
2023-03-06T08:07:18.851Z,57.58
2023-03-06T08:07:50.663Z,57.54
2023-03-06T08:08:22.405Z,57.29
2023-03-06T08:08:55.810Z,56.93
2023-03-06T08:09:27.722Z,57.36
2023-03-06T08:09:59.488Z,56.96
2023-03-06T08:10:31.323Z,56.73
2023-03-06T08:11:03.944Z,56.73
2023-03-06T08:11:35.757Z,56.30
2023-03-06T08:12:08.021Z,57.42
2023-03-06T08:12:39.835Z,57.24
2023-03-06T08:13:11.793Z,56.73
2023-03-06T08:13:47.013Z,55.77
2023-03-06T08:14:18.886Z,55.53
2023-03-06T08:14:50.694Z,56.03
2023-03-06T08:15:22.568Z,56.38
2023-03-06T08:15:54.469Z,56.30
2023-03-06T08:16:31.190Z,56.45
2023-03-06T08:17:03.434Z,56.46
2023-03-06T08:17:35.715Z,55.71
2023-03-06T08:18:07.650Z,55.96
2023-03-06T08:18:40.284Z,56.61
2023-03-06T08:19:12.023Z,56.54
2023-03-06T08:19:43.766Z,56.50
2023-03-06T08:20:15.675Z,56.94
2023-03-06T08:20:47.670Z,56.67
2023-03-06T08:21:22.749Z,56.46
2023-03-06T08:21:54.765Z,55.41
2023-03-06T08:22:26.629Z,55.88
2023-03-06T08:22:58.538Z,55.49
2023-03-06T08:23:31.155Z,55.15
2023-03-06T08:24:03.454Z,55.65
2023-03-06T08:24:35.322Z,56.41
2023-03-06T08:25:08.119Z,56.36
2023-03-06T08:25:40.012Z,55.88
2023-03-06T08:26:14.802Z,56.36
2023-03-06T08:26:47.194Z,55.92
2023-03-06T08:27:19.012Z,56.83
2023-03-06T08:27:50.833Z,56.24
2023-03-06T08:28:22.742Z,56.18
2023-03-06T08:28:58.063Z,56.08
2023-03-06T08:29:31.560Z,55.55
2023-03-06T08:30:04.384Z,56.83
2023-03-06T08:30:36.423Z,55.94
2023-03-06T08:31:25.563Z,56.63
2023-03-06T08:31:57.531Z,57.63
2023-03-06T08:32:29.579Z,57.21
2023-03-06T08:33:01.577Z,57.21
2023-03-06T08:33:33.367Z,57.41
2023-03-06T08:34:11.154Z,57.16
2023-03-06T08:34:43.083Z,56.62
2023-03-06T08:35:15.507Z,56.71
2023-03-06T08:35:47.777Z,56.92
2023-03-06T08:36:19.928Z,56.82
2023-03-06T08:36:52.132Z,56.12
2023-03-06T08:37:24.087Z,55.49
2023-03-06T08:37:55.977Z,56.93
2023-03-06T08:38:28.391Z,56.10
2023-03-06T08:39:00.654Z,56.30
2023-03-06T08:39:32.461Z,55.54
2023-03-06T08:40:04.885Z,55.48
2023-03-06T08:40:36.704Z,56.32
2023-03-06T08:41:08.571Z,56.34
2023-03-06T08:41:42.318Z,55.42
2023-03-06T08:42:15.818Z,54.62
2023-03-06T08:42:48.562Z,55.40
2023-03-06T08:43:20.786Z,54.68
2023-03-06T08:43:52.963Z,54.68
2023-03-06T08:44:24.724Z,54.66
2023-03-06T08:44:56.551Z,54.09
2023-03-06T08:45:28.319Z,54.98
2023-03-06T08:46:00.217Z,54.26
2023-03-06T08:46:33.539Z,54.35
2023-03-06T08:47:05.560Z,53.79
2023-03-06T08:47:37.384Z,53.44
2023-03-06T08:48:09.294Z,52.93
2023-03-06T08:48:42.140Z,53.21
2023-03-06T08:49:14.164Z,53.39
2023-03-06T08:49:46.104Z,53.73
2023-03-06T08:50:19.121Z,54.23
2023-03-06T08:50:51.524Z,53.90
2023-03-06T08:51:24.326Z,53.84
2023-03-06T08:51:56.328Z,54.06
2023-03-06T08:52:28.162Z,54.11
2023-03-06T08:53:00.310Z,53.88
2023-03-06T08:53:42.700Z,53.27
2023-03-06T08:54:15.721Z,53.77
2023-03-06T08:54:47.474Z,54.41
2023-03-06T08:55:19.314Z,53.75
2023-03-06T08:55:51.501Z,53.68
2023-03-06T08:56:26.085Z,52.96
2023-03-06T08:56:57.929Z,52.98
2023-03-06T08:57:30.719Z,52.99
2023-03-06T08:58:02.811Z,52.68
2023-03-06T08:58:35.042Z,52.13
2023-03-06T08:59:09.162Z,52.71
2023-03-06T08:59:43.984Z,52.28
2023-03-06T09:00:16.522Z,53.07
2023-03-06T09:00:49.055Z,53.62
2023-03-06T09:01:32.796Z,53.44
2023-03-06T09:02:05.730Z,52.24
2023-03-06T09:02:37.642Z,52.65
2023-03-06T09:03:09.751Z,52.78
2023-03-06T09:03:41.957Z,51.97
2023-03-06T09:04:14.148Z,51.20
2023-03-06T09:04:45.974Z,51.22
2023-03-06T09:05:17.880Z,51.43
2023-03-06T09:05:51.096Z,50.91
2023-03-06T09:06:23.370Z,50.92
2023-03-06T09:06:55.613Z,51.45
2023-03-06T09:07:27.727Z,51.93
2023-03-06T09:07:59.560Z,51.08
2023-03-06T09:08:31.419Z,50.61
2023-03-06T09:09:05.504Z,50.52
2023-03-06T09:09:37.240Z,49.96
2023-03-06T09:10:14.246Z,49.87
2023-03-06T09:10:48.393Z,50.75
2023-03-06T09:11:23.155Z,50.67
2023-03-06T09:11:55.202Z,50.50
2023-03-06T09:12:29.299Z,50.06
2023-03-06T09:13:02.589Z,50.17
2023-03-06T09:13:34.593Z,50.54
2023-03-06T09:14:07.174Z,49.95
2023-03-06T09:14:39.086Z,50.36
2023-03-06T09:15:12.463Z,51.45
2023-03-06T09:15:44.405Z,50.81
2023-03-06T09:16:19.617Z,50.17
2023-03-06T09:16:51.491Z,50.22
2023-03-06T09:17:23.535Z,50.49
2023-03-06T09:17:55.430Z,50.04
2023-03-06T09:18:29.471Z,50.37
2023-03-06T09:19:01.462Z,50.58
2023-03-06T09:19:33.327Z,51.08
2023-03-06T09:20:10.474Z,51.42
2023-03-06T09:20:42.388Z,50.30
2023-03-06T09:21:14.192Z,49.32
2023-03-06T09:21:46.050Z,49.77
2023-03-06T09:22:17.825Z,49.64
2023-03-06T09:22:49.887Z,49.38
2023-03-06T09:23:21.996Z,48.92
2023-03-06T09:23:54.215Z,49.11
2023-03-06T09:24:26.109Z,49.27
2023-03-06T09:24:58.261Z,49.04
2023-03-06T09:25:30.143Z,49.56
2023-03-06T09:26:02.932Z,49.74
2023-03-06T09:26:45.714Z,49.05
2023-03-06T09:27:18.699Z,50.18
2023-03-06T09:28:01.855Z,50.79
2023-03-06T09:28:40.984Z,50.07
2023-03-06T09:29:12.906Z,49.30
2023-03-06T09:29:44.750Z,48.95
2023-03-06T09:30:17.839Z,49.04
2023-03-06T09:30:49.752Z,49.16
2023-03-06T09:31:21.798Z,49.86
2023-03-06T09:31:53.606Z,49.80
2023-03-06T09:32:25.435Z,48.71
2023-03-06T09:32:57.315Z,48.43
2023-03-06T09:33:31.354Z,48.48
2023-03-06T09:34:03.383Z,48.21
2023-03-06T09:34:35.962Z,48.41
2023-03-06T09:35:26.876Z,48.64
2023-03-06T09:35:58.869Z,48.27
2023-03-06T09:36:30.789Z,49.62
2023-03-06T09:37:03.606Z,49.54
2023-03-06T09:37:35.413Z,49.35
2023-03-06T09:38:07.539Z,49.38
2023-03-06T09:38:39.434Z,49.21
2023-03-06T09:39:11.986Z,49.20
2023-03-06T09:39:44.574Z,49.10
2023-03-06T09:40:33.833Z,49.48
2023-03-06T09:41:34.405Z,49.74
2023-03-06T09:42:15.067Z,49.03
2023-03-06T09:42:46.928Z,49.50
2023-03-06T09:43:24.066Z,47.50
2023-03-06T09:44:07.499Z,47.65
2023-03-06T09:44:41.281Z,47.34
2023-03-06T09:45:14.292Z,47.38
2023-03-06T09:45:46.167Z,47.69
2023-03-06T09:46:53.087Z,46.73
2023-03-06T09:48:01.629Z,47.46
2023-03-06T09:49:10.516Z,47.26
2023-03-06T09:49:56.686Z,47.09
2023-03-06T09:50:28.622Z,47.23
2023-03-06T09:51:12.733Z,46.21
2023-03-06T09:51:57.240Z,47.46
2023-03-06T09:52:40.968Z,45.59
2023-03-06T09:53:15.345Z,45.77
2023-03-06T09:54:01.571Z,46.31
2023-03-06T09:54:58.886Z,45.67
2023-03-06T09:55:35.728Z,45.06
2023-03-06T09:56:18.163Z,44.61
2023-03-06T09:56:51.042Z,45.46
2023-03-06T09:57:29.324Z,44.76
2023-03-06T09:58:11.558Z,45.35
2023-03-06T09:58:59.771Z,45.15
2023-03-06T09:59:32.445Z,45.89
2023-03-06T10:00:24.678Z,44.66
2023-03-06T10:01:05.797Z,44.29
2023-03-06T10:01:46.107Z,45.21
2023-03-06T10:02:38.690Z,44.81
2023-03-06T10:03:15.285Z,44.40
2023-03-06T10:03:53.183Z,44.21
2023-03-06T10:04:46.315Z,43.91
2023-03-06T10:05:24.518Z,45.30
2023-03-06T10:06:10.494Z,44.44
2023-03-06T10:06:53.254Z,43.38
2023-03-06T10:07:42.270Z,42.82
2023-03-06T10:08:30.397Z,43.22
2023-03-06T10:09:24.535Z,43.80
2023-03-06T10:10:06.075Z,42.55
2023-03-06T10:10:59.611Z,43.30
2023-03-06T10:12:00.874Z,43.36
2023-03-06T10:12:53.482Z,44.07
2023-03-06T10:13:37.865Z,43.35
2023-03-06T10:14:40.005Z,44.55
2023-03-06T10:15:16.090Z,43.28
2023-03-06T10:15:49.864Z,42.40
2023-03-06T10:16:29.289Z,42.02
2023-03-06T10:17:02.066Z,41.39
2023-03-06T10:17:38.317Z,40.97
2023-03-06T10:18:12.687Z,41.59
2023-03-06T10:18:44.981Z,41.84
2023-03-06T10:19:21.823Z,41.92
2023-03-06T10:19:54.026Z,42.67
2023-03-06T10:20:41.602Z,42.82
2023-03-06T10:21:47.655Z,42.65
2023-03-06T10:22:43.751Z,43.17
2023-03-06T10:23:33.615Z,43.84
2023-03-06T10:24:41.493Z,43.57
2023-03-06T10:25:28.050Z,41.61
2023-03-06T10:26:11.914Z,41.80
2023-03-06T10:26:52.615Z,41.71
2023-03-06T10:27:56.135Z,42.48
2023-03-06T10:28:40.616Z,42.32
2023-03-06T10:29:12.431Z,42.29
2023-03-06T10:30:02.837Z,40.07
2023-03-06T10:31:03.819Z,40.76
2023-03-06T10:31:37.725Z,41.21
2023-03-06T10:32:48.576Z,40.22
2023-03-06T10:33:56.695Z,42.73
2023-03-06T10:34:37.813Z,41.79
2023-03-06T10:35:19.306Z,41.28
2023-03-06T10:35:56.384Z,41.68
2023-03-06T10:36:30.002Z,42.61
2023-03-06T10:37:17.638Z,43.13
2023-03-06T10:37:49.781Z,43.31
2023-03-06T10:38:38.491Z,42.80
2023-03-06T10:39:16.804Z,43.22
2023-03-06T10:39:57.598Z,42.92
2023-03-06T10:40:44.352Z,41.45
2023-03-06T10:41:29.203Z,42.42
2023-03-06T10:42:00.981Z,41.38
2023-03-06T10:42:32.806Z,40.73
2023-03-06T10:43:12.416Z,40.56
2023-03-06T10:44:05.657Z,43.19
2023-03-06T10:44:37.878Z,42.97
2023-03-06T10:45:13.706Z,43.41
2023-03-06T10:45:51.379Z,43.20
2023-03-06T10:46:35.902Z,43.05
2023-03-06T10:47:31.662Z,43.35
2023-03-06T10:48:14.529Z,42.65
2023-03-06T10:48:58.135Z,42.41
2023-03-06T10:49:40.079Z,42.32
2023-03-06T10:50:32.372Z,42.16
2023-03-06T10:51:24.766Z,42.96
2023-03-06T10:51:56.497Z,42.16
2023-03-06T10:52:33.380Z,43.12
2023-03-06T10:53:17.141Z,43.77
2023-03-06T10:54:01.234Z,44.31
2023-03-06T10:54:35.789Z,43.39
2023-03-06T10:55:29.576Z,44.67
2023-03-06T10:56:01.754Z,43.88
2023-03-06T10:56:34.774Z,43.15
2023-03-06T10:57:29.598Z,43.35
2023-03-06T10:58:19.679Z,43.57
2023-03-06T10:59:15.224Z,44.10
2023-03-06T11:00:01.344Z,43.38
2023-03-06T11:00:38.566Z,43.12
2023-03-06T11:01:22.278Z,45.04
2023-03-06T11:01:58.259Z,43.55
2023-03-06T11:02:32.126Z,43.62
2023-03-06T11:03:24.787Z,44.58
2023-03-06T11:04:23.995Z,45.01
2023-03-06T11:04:59.442Z,46.36
2023-03-06T11:05:31.379Z,46.71
2023-03-06T11:06:06.282Z,46.32
2023-03-06T11:06:38.167Z,46.76
2023-03-06T11:07:22.865Z,46.27
2023-03-06T11:07:59.252Z,46.16
2023-03-06T11:08:31.818Z,46.93
2023-03-06T11:09:36.944Z,47.00
2023-03-06T11:10:20.014Z,47.38
2023-03-06T11:11:02.690Z,47.07
2023-03-06T11:11:37.753Z,47.38
2023-03-06T11:12:30.307Z,47.58
2023-03-06T11:13:39.923Z,48.44
2023-03-06T11:14:23.221Z,47.82
2023-03-06T11:15:09.870Z,48.72
2023-03-06T11:16:01.128Z,49.44
2023-03-06T11:16:33.211Z,49.40
2023-03-06T11:17:05.155Z,47.69
2023-03-06T11:17:57.875Z,48.06
2023-03-06T11:18:41.434Z,49.01
2023-03-06T11:19:23.693Z,48.68
2023-03-06T11:20:16.963Z,49.95
2023-03-06T11:20:54.831Z,49.43
2023-03-06T11:21:33.343Z,51.20
2023-03-06T11:22:19.622Z,53.20
2023-03-06T11:23:09.721Z,53.63
2023-03-06T11:23:45.612Z,52.67
2023-03-06T11:24:21.530Z,52.71
2023-03-06T11:24:56.025Z,53.34
2023-03-06T11:25:33.610Z,56.15
2023-03-06T11:26:17.415Z,56.67
2023-03-06T11:26:51.797Z,57.68
2023-03-06T11:27:34.929Z,58.91
2023-03-06T11:28:28.984Z,58.90
2023-03-06T11:29:38.481Z,60.23
2023-03-06T11:30:26.661Z,62.06
2023-03-06T11:31:23.198Z,64.13
2023-03-06T11:32:04.249Z,63.39
2023-03-06T11:32:59.911Z,64.60
2023-03-06T11:33:42.633Z,63.37
2023-03-06T11:34:50.719Z,65.85
2023-03-06T11:35:29.062Z,64.89
2023-03-06T11:36:37.983Z,67.34
2023-03-06T11:37:40.197Z,65.56
2023-03-06T11:38:25.045Z,65.26
2023-03-06T11:39:04.676Z,64.75
2023-03-06T11:39:49.531Z,65.76
2023-03-06T11:40:54.222Z,63.91
2023-03-06T11:42:11.151Z,65.91
2023-03-06T11:42:46.255Z,70.07
2023-03-06T11:43:27.381Z,67.75
2023-03-06T11:44:17.455Z,69.17
2023-03-06T11:45:26.286Z,61.70
2023-03-06T11:46:40.383Z,64.22
2023-03-06T11:47:26.239Z,62.75
2023-03-06T11:48:21.849Z,63.59
2023-03-06T11:49:12.885Z,64.93
2023-03-06T11:49:56.600Z,65.10
2023-03-06T11:51:06.295Z,64.63
2023-03-06T11:51:50.099Z,64.51
2023-03-06T11:52:56.816Z,62.92
2023-03-06T11:54:36.971Z,62.77
2023-03-06T11:55:15.827Z,63.00
2023-03-06T11:55:56.596Z,62.01
2023-03-06T11:57:20.758Z,62.53
2023-03-06T11:58:20.844Z,62.22
2023-03-06T11:59:54.015Z,61.66
2023-03-06T12:00:34.659Z,60.95
2023-03-06T12:01:12.448Z,61.99
2023-03-06T12:01:44.217Z,61.54
2023-03-06T12:02:31.350Z,60.65
2023-03-06T12:03:17.913Z,60.24
2023-03-06T12:04:17.135Z,63.11
2023-03-06T12:05:22.822Z,64.09
2023-03-06T12:06:12.775Z,62.26
2023-03-06T12:07:29.209Z,62.78
2023-03-06T12:08:21.935Z,61.88
2023-03-06T12:09:14.373Z,60.37
2023-03-06T12:09:51.795Z,64.03
2023-03-06T12:10:41.851Z,61.09
2023-03-06T12:11:54.601Z,60.13
2023-03-06T12:12:35.234Z,57.38
2023-03-06T12:13:10.016Z,58.34
2023-03-06T12:14:05.315Z,59.85
2023-03-06T12:14:58.215Z,58.58
2023-03-06T12:15:58.469Z,59.08
2023-03-06T12:16:36.141Z,61.07
2023-03-06T12:17:36.487Z,58.19
2023-03-06T12:18:22.278Z,58.48
2023-03-06T12:19:13.505Z,60.73
2023-03-06T12:19:54.001Z,56.99
2023-03-06T12:20:31.848Z,59.87
2023-03-06T12:21:29.439Z,57.84
2023-03-06T12:22:20.410Z,59.40
2023-03-06T12:23:14.991Z,59.60
2023-03-06T12:23:53.242Z,62.96
2023-03-06T12:24:36.773Z,60.78
2023-03-06T12:25:22.887Z,57.88
2023-03-06T12:26:26.808Z,59.26
2023-03-06T12:27:19.876Z,60.80
2023-03-06T12:28:29.918Z,59.61
2023-03-06T12:29:16.774Z,60.09
2023-03-06T13:05:31.405Z,68.03
2023-03-06T13:06:06.190Z,69.25
2023-03-06T13:08:03.148Z,68.66
2023-03-06T13:08:56.252Z,68.47
2023-03-06T13:09:42.586Z,70.05
2023-03-06T13:10:25.546Z,67.96
2023-03-06T13:11:12.837Z,67.51
2023-03-06T13:11:58.750Z,68.13
2023-03-06T13:12:58.990Z,67.00
2023-03-06T13:13:43.116Z,67.64
2023-03-06T13:14:31.039Z,66.50
2023-03-06T13:15:46.010Z,67.48
2023-03-06T13:16:33.301Z,66.16
2023-03-06T13:17:23.434Z,66.32
2023-03-06T13:17:56.233Z,67.82
2023-03-06T13:18:27.989Z,67.91
2023-03-06T13:19:22.266Z,67.87
2023-03-06T13:20:15.647Z,67.16
2023-03-06T13:20:57.713Z,67.28
2023-03-06T13:21:41.505Z,66.46
2023-03-06T13:22:28.485Z,67.64
2023-03-06T13:23:29.321Z,68.45
2023-03-06T13:24:05.899Z,67.62
2023-03-06T13:24:37.856Z,66.98
2023-03-06T13:25:21.286Z,64.85
2023-03-06T13:25:53.217Z,65.59
2023-03-06T13:26:25.217Z,66.30
2023-03-06T13:26:58.994Z,66.40
2023-03-06T13:27:59.107Z,66.89
2023-03-06T13:28:50.628Z,64.93
2023-03-06T13:29:37.231Z,65.44
2023-03-06T13:30:23.605Z,62.50
2023-03-06T13:30:56.244Z,63.30
2023-03-06T13:31:29.636Z,63.06
2023-03-06T13:32:01.424Z,64.39
2023-03-06T13:32:35.789Z,63.52
2023-03-06T13:33:22.763Z,64.75
2023-03-06T13:33:54.523Z,65.12
2023-03-06T13:34:31.987Z,62.83
2023-03-06T13:35:32.580Z,62.57
2023-03-06T13:36:26.458Z,64.27
2023-03-06T13:37:20.113Z,65.58
2023-03-06T13:37:53.030Z,62.43
2023-03-06T13:38:38.225Z,62.07
2023-03-06T13:39:11.858Z,62.56
2023-03-06T13:39:55.425Z,63.24
2023-03-06T13:40:30.222Z,63.89
2023-03-06T13:41:23.406Z,62.98
2023-03-06T13:41:58.881Z,63.08
2023-03-06T13:42:33.007Z,61.06
2023-03-06T13:43:07.501Z,61.81
2023-03-06T13:43:45.101Z,61.80
2023-03-06T13:44:26.011Z,61.59
2023-03-06T13:45:08.479Z,61.63
2023-03-06T13:45:43.405Z,60.93
2023-03-06T13:46:37.750Z,62.94
2023-03-06T13:48:25.062Z,63.49
2023-03-06T13:49:12.567Z,64.02
2023-03-06T13:49:48.119Z,62.51
2023-03-06T13:50:26.888Z,62.93
2023-03-06T13:51:23.519Z,62.99
2023-03-06T13:51:55.279Z,63.25
2023-03-06T13:52:51.379Z,62.87
2023-03-06T13:53:29.383Z,63.14
2023-03-06T13:54:37.867Z,61.97
2023-03-06T13:55:12.295Z,62.52
2023-03-06T13:56:25.642Z,62.21
2023-03-06T13:57:18.841Z,63.58
2023-03-06T13:58:17.018Z,62.77
2023-03-06T13:59:22.392Z,63.84
2023-03-06T14:00:14.525Z,63.96
2023-03-06T14:01:09.608Z,63.85
2023-03-06T14:02:21.142Z,63.69
2023-03-06T14:02:53.052Z,63.40
2023-03-06T14:03:45.196Z,63.42
2023-03-06T14:04:38.610Z,63.20
2023-03-06T14:05:14.478Z,63.01
2023-03-06T14:05:51.050Z,63.22
2023-03-06T14:06:34.633Z,62.48
2023-03-06T14:07:32.608Z,62.50
2023-03-06T14:08:32.918Z,61.01
2023-03-06T14:09:28.165Z,61.74
2023-03-06T14:10:20.098Z,62.11
2023-03-06T14:11:21.034Z,61.63
2023-03-06T14:12:24.110Z,63.15
2023-03-06T14:13:03.093Z,63.14
2023-03-06T14:13:47.341Z,63.92
2023-03-06T14:14:47.089Z,61.90
2023-03-06T14:15:42.465Z,62.95
2023-03-06T14:16:22.912Z,61.81
2023-03-06T14:16:56.146Z,61.48
2023-03-06T14:17:32.743Z,61.14
2023-03-06T14:18:20.164Z,61.94
2023-03-06T14:18:55.436Z,64.15
2023-03-06T14:19:32.715Z,65.70
2023-03-06T14:20:15.202Z,66.44
2023-03-06T14:20:49.948Z,67.40
2023-03-06T14:21:40.234Z,67.28
2023-03-06T14:22:19.184Z,67.01
2023-03-06T14:23:46.562Z,66.22
2023-03-06T14:24:34.529Z,65.63
2023-03-06T14:25:28.213Z,67.12
2023-03-06T14:26:17.757Z,68.80
2023-03-06T14:26:51.736Z,69.64
2023-03-06T14:27:48.372Z,67.94
2023-03-06T14:28:52.532Z,66.19
2023-03-06T14:29:29.694Z,67.49
2023-03-06T14:30:11.737Z,69.26
2023-03-06T14:30:50.328Z,68.21
2023-03-06T14:31:42.421Z,66.71
2023-03-06T14:32:19.915Z,65.03
2023-03-06T14:32:54.403Z,65.46
2023-03-06T14:33:44.828Z,66.37
2023-03-06T14:34:33.299Z,66.00
2023-03-06T14:35:05.682Z,67.82
2023-03-06T14:35:38.343Z,68.46
2023-03-06T14:36:22.297Z,68.52
2023-03-06T14:36:56.271Z,67.58
2023-03-06T14:37:29.169Z,67.43
2023-03-06T14:38:06.205Z,67.34
2023-03-06T14:38:48.903Z,68.35
2023-03-06T14:39:27.622Z,67.97
2023-03-06T14:39:59.447Z,67.08
2023-03-06T14:40:36.240Z,65.92
2023-03-06T14:41:08.082Z,67.55
2023-03-06T14:41:40.119Z,67.94
2023-03-06T14:42:24.865Z,68.54
2023-03-06T14:43:21.024Z,68.75
2023-03-06T14:43:53.151Z,68.59
2023-03-06T14:44:26.601Z,69.12
2023-03-06T14:45:18.752Z,70.11
2023-03-06T14:46:00.132Z,67.20
2023-03-06T14:46:31.962Z,66.38
2023-03-06T14:47:34.925Z,67.29
2023-03-06T14:48:07.121Z,66.47
2023-03-06T14:48:41.452Z,67.04
2023-03-06T14:49:18.745Z,67.07
2023-03-06T14:50:24.271Z,67.54
2023-03-06T14:50:57.547Z,68.19
2023-03-06T14:51:33.334Z,68.53
2023-03-06T14:52:05.309Z,67.99
2023-03-06T14:52:38.145Z,65.62
2023-03-06T14:53:09.873Z,66.05
2023-03-06T14:53:44.711Z,66.16
2023-03-06T14:54:27.505Z,65.87
2023-03-06T14:54:59.319Z,66.13
2023-03-06T14:55:35.054Z,66.24
2023-03-06T14:56:07.865Z,66.79
2023-03-06T14:56:43.095Z,66.32
2023-03-06T14:57:22.112Z,65.92
2023-03-06T14:58:16.735Z,65.77
2023-03-06T14:59:06.094Z,67.48
2023-03-06T14:59:52.652Z,66.53
2023-03-06T15:00:33.363Z,67.38
2023-03-06T15:01:11.104Z,66.60
2023-03-06T15:01:48.528Z,66.96
2023-03-06T15:02:24.162Z,66.00
2023-03-06T15:02:57.721Z,66.04
2023-03-06T15:03:50.269Z,65.84
2023-03-06T15:04:42.142Z,66.23
2023-03-06T15:05:30.044Z,67.14
2023-03-06T15:06:03.451Z,66.91
2023-03-06T15:06:44.342Z,67.60
2023-03-06T15:07:26.019Z,67.82
2023-03-06T15:08:03.946Z,69.54
2023-03-06T15:08:39.934Z,69.88
2023-03-06T15:09:31.918Z,69.73
2023-03-06T15:10:06.604Z,68.13
2023-03-06T15:10:38.942Z,68.52
2023-03-06T15:11:10.774Z,68.58
2023-03-06T15:12:20.425Z,68.92
2023-03-06T15:12:52.691Z,68.11
2023-03-06T15:13:27.757Z,69.81
2023-03-06T15:14:02.121Z,70.34
2023-03-06T15:14:55.846Z,70.69
2023-03-06T15:15:30.924Z,70.68
2023-03-06T15:16:24.997Z,70.45
2023-03-06T15:16:56.998Z,71.55
2023-03-06T15:17:43.961Z,71.86
2023-03-06T15:18:39.870Z,71.71
2023-03-06T15:19:20.305Z,71.99
2023-03-06T15:19:55.225Z,72.00
2023-03-06T15:20:52.585Z,69.51
2023-03-06T15:21:26.798Z,71.24
2023-03-06T15:21:58.641Z,71.58
2023-03-06T15:22:40.071Z,71.86
2023-03-06T15:23:34.987Z,70.70
2023-03-06T15:24:35.797Z,70.79
2023-03-06T15:25:32.563Z,71.59
2023-03-06T15:26:20.621Z,72.15
2023-03-06T15:27:04.619Z,72.12
2023-03-06T15:27:36.510Z,72.43
2023-03-06T15:28:35.250Z,71.65
2023-03-06T15:29:10.364Z,71.74
2023-03-06T15:29:42.689Z,71.74
2023-03-06T15:30:28.854Z,71.69
2023-03-06T15:31:22.614Z,71.83
2023-03-06T15:32:27.622Z,72.55
2023-03-06T15:33:22.443Z,72.71
2023-03-06T15:34:15.371Z,72.58
2023-03-06T15:34:47.366Z,73.35
2023-03-06T15:35:24.806Z,72.82
2023-03-06T15:36:02.004Z,73.22
2023-03-06T15:36:37.904Z,73.20
2023-03-06T15:37:29.269Z,73.41
2023-03-06T15:38:01.898Z,73.34
2023-03-06T15:38:40.198Z,73.72
2023-03-06T15:39:33.731Z,73.03
2023-03-06T15:40:09.578Z,72.33
2023-03-06T15:40:54.841Z,71.75
2023-03-06T15:41:36.035Z,71.00
2023-03-06T15:42:08.218Z,70.90
2023-03-06T15:42:42.660Z,71.34
2023-03-06T15:43:14.537Z,71.95
2023-03-06T15:43:46.474Z,71.60
2023-03-06T15:44:18.625Z,71.46
2023-03-06T15:44:55.331Z,71.85
2023-03-06T15:45:29.553Z,72.25
2023-03-06T15:46:02.006Z,72.71
2023-03-06T15:46:33.852Z,72.98
2023-03-06T15:47:09.331Z,73.86
2023-03-06T15:47:41.765Z,74.35
2023-03-06T15:48:18.067Z,73.37
2023-03-06T15:48:54.006Z,73.61
2023-03-06T15:49:26.449Z,73.62
2023-03-06T15:50:02.173Z,73.42
2023-03-06T15:50:33.927Z,73.95
2023-03-06T15:51:06.114Z,74.17
2023-03-06T15:51:37.942Z,73.89
2023-03-06T15:52:10.212Z,73.68
2023-03-06T15:52:41.973Z,74.29
2023-03-06T15:53:13.711Z,73.90
2023-03-06T15:53:45.508Z,74.63
2023-03-06T15:54:17.393Z,74.45
2023-03-06T15:54:49.538Z,74.31
2023-03-06T15:55:25.818Z,73.82
2023-03-06T15:55:59.229Z,73.16
2023-03-06T15:56:35.324Z,73.17
2023-03-06T15:57:19.385Z,73.13
2023-03-06T15:57:55.495Z,73.78
2023-03-06T15:58:30.602Z,74.84
2023-03-06T15:59:02.886Z,75.09
2023-03-06T15:59:43.771Z,75.29
2023-03-06T16:00:27.580Z,75.71
2023-03-06T16:01:00.015Z,75.80
2023-03-06T16:01:32.274Z,75.89
2023-03-06T16:02:23.027Z,76.32
2023-03-06T16:02:56.800Z,76.94
2023-03-06T16:04:01.538Z,77.86
2023-03-06T16:04:33.482Z,78.31
2023-03-06T16:05:15.888Z,77.46
2023-03-06T16:05:47.813Z,77.17
2023-03-06T16:06:26.901Z,77.02
2023-03-06T16:06:58.679Z,77.51
2023-03-06T16:07:30.443Z,77.54
2023-03-06T16:08:02.607Z,77.63
2023-03-06T16:08:34.579Z,77.57
2023-03-06T16:09:41.447Z,78.97
2023-03-06T16:10:16.509Z,78.65
2023-03-06T16:10:51.092Z,78.83
2023-03-06T16:11:43.145Z,78.82
2023-03-06T16:12:18.339Z,78.82
2023-03-06T16:12:54.477Z,79.17
2023-03-06T16:13:29.023Z,79.88
2023-03-06T16:14:02.227Z,80.11
2023-03-06T16:14:34.507Z,80.39
2023-03-06T16:15:23.466Z,80.34
2023-03-06T16:15:56.962Z,80.07